Aeroporto :
LOGIN :

Iscrizione | Disclaimer

   EN    FR    IT 

 










Sommario :    VFR   VFR Marginale   IFR   IFR Intensivo   IFR Molto Intensivo
Visibilità : 
Base nubi : 
>= 8 km
>= 3000ft
5 / 8 km
1000 / 3000 ft
1500m / 5 km
500 / 1000 ft
800 / 1500m
200 / 500 ft
< 800m
< 200 ft
Simboli :   Temporali  Nebbia  Neve Forte  Precipitazioni Forti  Vento > 20 kt
SIGMETs :   Varie  Temporali  Ghiacco  Turbolenza  Onda orograficha  Ceneri Vulcaniche






- Altitudine del aeroporto : 12 ft
- Codice IATA : CQF


LFAC - Calais

ULTIMO METAR :
  • 232000Z AUTO 19005KT 9999 SCT028/// SCT035/// BKN088/// ///CB 05/03 Q0990

METARs OBSOLETI :
  • 231930Z AUTO 21009KT 9999 -RA FEW016 SCT024 BKN035 05/04 Q0990
  • 231900Z AUTO 20006KT 9999 SCT027 BKN037 BKN044 05/04 Q0990
  • 231830Z AUTO 19007KT 9999 FEW043 SCT170 BKN210 05/04 Q0990
  • 231800Z AUTO 20009KT 9999 FEW027/// SCT080/// BKN100/// ///TCU 05/04 Q0990
  • 231730Z AUTO 21013KT 8000 -RA BKN028/// BKN036/// BKN043/// ///TCU 05/04 Q0990
  • 231700Z AUTO 21010KT 9999 -RA FEW026/// BKN039/// BKN052/// ///CB 06/04 Q0989
  • 231630Z AUTO 21008KT 9999 SCT016/// BKN029/// BKN040/// ///TCU 06/04 Q0989
  • 231600Z AUTO 21005KT 180V240 9999 FEW020/// BKN030/// OVC038/// ///TCU 05/04 Q0989

TAF N/A
ATIS : +33 3 21 00 11 14



MetMap, La meteo Aeronautica in un colpo d'occhio ! - Copyright ORBIFLY Dicembre 2007 - Disclaimer

ORBIFLY MET'MAP TEAM :

Programmazione e sviluppo : Alexandra Zaïnal
Concezione : Baudouin d'Aumeries
Supporto tecnico e logistico : Manuel Goepfert
Aiuto : Marc-Olivier Méhu
Aiuto per la traduzione : Arnaldo La Scala




FONTI E CREDITI :

   NOAA